sensor_id;sensor_type;location;lat;lon;timestamp;temperature;humidity
15574;DHT22;7888;46.748;8.102;2022-12-18T00:01:19;2.00;55.90
15574;DHT22;7888;46.748;8.102;2022-12-18T00:03:45;2.00;55.90
15574;DHT22;7888;46.748;8.102;2022-12-18T00:06:11;2.00;55.90
15574;DHT22;7888;46.748;8.102;2022-12-18T00:08:39;2.00;55.90
15574;DHT22;7888;46.748;8.102;2022-12-18T00:11:07;2.00;56.00
15574;DHT22;7888;46.748;8.102;2022-12-18T00:13:36;2.00;56.00
15574;DHT22;7888;46.748;8.102;2022-12-18T00:16:07;2.00;56.00
15574;DHT22;7888;46.748;8.102;2022-12-18T00:18:35;2.00;56.00
15574;DHT22;7888;46.748;8.102;2022-12-18T00:21:03;2.00;56.00
15574;DHT22;7888;46.748;8.102;2022-12-18T00:23:31;2.00;56.00
15574;DHT22;7888;46.748;8.102;2022-12-18T00:26:06;2.00;56.00
15574;DHT22;7888;46.748;8.102;2022-12-18T00:28:41;2.00;56.00
15574;DHT22;7888;46.748;8.102;2022-12-18T00:31:10;1.90;55.90
15574;DHT22;7888;46.748;8.102;2022-12-18T00:33:38;1.90;55.90
15574;DHT22;7888;46.748;8.102;2022-12-18T00:36:10;1.90;56.00
15574;DHT22;7888;46.748;8.102;2022-12-18T00:38:38;1.90;56.10
15574;DHT22;7888;46.748;8.102;2022-12-18T00:41:05;1.90;56.10
15574;DHT22;7888;46.748;8.102;2022-12-18T00:43:31;1.90;56.70
15574;DHT22;7888;46.748;8.102;2022-12-18T00:45:57;1.90;56.10
15574;DHT22;7888;46.748;8.102;2022-12-18T00:48:23;1.90;56.20
15574;DHT22;7888;46.748;8.102;2022-12-18T00:50:50;1.90;56.20
15574;DHT22;7888;46.748;8.102;2022-12-18T00:53:16;1.90;56.20
15574;DHT22;7888;46.748;8.102;2022-12-18T00:55:43;1.90;56.20
15574;DHT22;7888;46.748;8.102;2022-12-18T00:58:11;1.90;56.30
15574;DHT22;7888;46.748;8.102;2022-12-18T01:00:38;1.90;56.40
15574;DHT22;7888;46.748;8.102;2022-12-18T01:03:04;1.90;56.40
15574;DHT22;7888;46.748;8.102;2022-12-18T01:05:31;1.90;56.40
15574;DHT22;7888;46.748;8.102;2022-12-18T01:07:58;1.90;56.40
15574;DHT22;7888;46.748;8.102;2022-12-18T01:10:25;1.90;56.30
15574;DHT22;7888;46.748;8.102;2022-12-18T01:12:51;1.90;56.20
15574;DHT22;7888;46.748;8.102;2022-12-18T01:15:17;1.90;56.10
15574;DHT22;7888;46.748;8.102;2022-12-18T01:17:44;1.80;56.00
15574;DHT22;7888;46.748;8.102;2022-12-18T01:20:11;1.80;56.00
15574;DHT22;7888;46.748;8.102;2022-12-18T01:22:38;1.80;56.00
15574;DHT22;7888;46.748;8.102;2022-12-18T01:25:04;1.80;56.00
15574;DHT22;7888;46.748;8.102;2022-12-18T01:27:33;1.80;56.10
15574;DHT22;7888;46.748;8.102;2022-12-18T01:29:59;1.80;56.20
15574;DHT22;7888;46.748;8.102;2022-12-18T01:32:25;1.80;56.20
15574;DHT22;7888;46.748;8.102;2022-12-18T01:34:51;1.70;56.20
15574;DHT22;7888;46.748;8.102;2022-12-18T01:37:16;1.70;56.30
15574;DHT22;7888;46.748;8.102;2022-12-18T01:39:42;1.80;56.40
15574;DHT22;7888;46.748;8.102;2022-12-18T01:42:13;1.70;56.80
15574;DHT22;7888;46.748;8.102;2022-12-18T01:47:43;1.70;56.00
15574;DHT22;7888;46.748;8.102;2022-12-18T01:50:42;1.70;56.00
15574;DHT22;7888;46.748;8.102;2022-12-18T01:53:17;1.70;56.00
15574;DHT22;7888;46.748;8.102;2022-12-18T01:55:57;1.70;56.00
15574;DHT22;7888;46.748;8.102;2022-12-18T01:58:46;1.70;56.10
15574;DHT22;7888;46.748;8.102;2022-12-18T02:01:19;1.60;56.00
15574;DHT22;7888;46.748;8.102;2022-12-18T02:03:46;1.70;56.00
15574;DHT22;7888;46.748;8.102;2022-12-18T02:08:58;1.60;56.00
15574;DHT22;7888;46.748;8.102;2022-12-18T02:14:36;1.60;56.10
15574;DHT22;7888;46.748;8.102;2022-12-18T02:17:18;1.60;56.10
15574;DHT22;7888;46.748;8.102;2022-12-18T02:20:13;1.60;56.10
15574;DHT22;7888;46.748;8.102;2022-12-18T02:28:46;1.60;56.20
15574;DHT22;7888;46.748;8.102;2022-12-18T02:31:26;1.50;56.10
15574;DHT22;7888;46.748;8.102;2022-12-18T02:34:00;1.50;56.20
15574;DHT22;7888;46.748;8.102;2022-12-18T02:36:29;1.50;56.20
15574;DHT22;7888;46.748;8.102;2022-12-18T02:38:59;1.50;56.00
15574;DHT22;7888;46.748;8.102;2022-12-18T02:41:27;1.50;56.00
15574;DHT22;7888;46.748;8.102;2022-12-18T02:43:57;1.50;56.10
15574;DHT22;7888;46.748;8.102;2022-12-18T02:46:33;1.50;56.10
15574;DHT22;7888;46.748;8.102;2022-12-18T02:52:48;1.50;56.30
15574;DHT22;7888;46.748;8.102;2022-12-18T02:58:33;1.50;56.20
15574;DHT22;7888;46.748;8.102;2022-12-18T03:01:12;1.50;56.30
15574;DHT22;7888;46.748;8.102;2022-12-18T03:04:14;1.50;56.40
15574;DHT22;7888;46.748;8.102;2022-12-18T03:06:48;1.50;56.30
15574;DHT22;7888;46.748;8.102;2022-12-18T03:09:22;1.50;56.30
15574;DHT22;7888;46.748;8.102;2022-12-18T03:12:02;1.50;56.40
15574;DHT22;7888;46.748;8.102;2022-12-18T03:17:31;1.50;56.40
15574;DHT22;7888;46.748;8.102;2022-12-18T03:20:03;1.50;56.30
15574;DHT22;7888;46.748;8.102;2022-12-18T03:22:35;1.50;56.30
15574;DHT22;7888;46.748;8.102;2022-12-18T03:25:07;1.50;56.30
15574;DHT22;7888;46.748;8.102;2022-12-18T03:27:38;1.50;56.30
15574;DHT22;7888;46.748;8.102;2022-12-18T03:30:12;1.50;56.30
15574;DHT22;7888;46.748;8.102;2022-12-18T03:32:46;1.50;56.20
15574;DHT22;7888;46.748;8.102;2022-12-18T03:35:22;1.50;56.30
15574;DHT22;7888;46.748;8.102;2022-12-18T03:37:51;1.40;56.20
15574;DHT22;7888;46.748;8.102;2022-12-18T03:40:19;1.50;56.30
15574;DHT22;7888;46.748;8.102;2022-12-18T03:43:11;1.40;56.30
15574;DHT22;7888;46.748;8.102;2022-12-18T03:45:54;1.40;56.50
15574;DHT22;7888;46.748;8.102;2022-12-18T03:48:51;1.40;56.50
15574;DHT22;7888;46.748;8.102;2022-12-18T03:54:22;1.40;56.40
15574;DHT22;7888;46.748;8.102;2022-12-18T03:57:04;1.40;56.30
15574;DHT22;7888;46.748;8.102;2022-12-18T03:59:35;1.40;56.40
15574;DHT22;7888;46.748;8.102;2022-12-18T04:02:05;1.40;56.30
15574;DHT22;7888;46.748;8.102;2022-12-18T04:04:34;1.40;56.50
15574;DHT22;7888;46.748;8.102;2022-12-18T04:07:03;1.40;56.60
15574;DHT22;7888;46.748;8.102;2022-12-18T04:09:31;1.40;56.60
15574;DHT22;7888;46.748;8.102;2022-12-18T04:11:59;1.30;56.60
15574;DHT22;7888;46.748;8.102;2022-12-18T04:14:25;1.40;56.50
15574;DHT22;7888;46.748;8.102;2022-12-18T04:16:51;1.30;56.30
15574;DHT22;7888;46.748;8.102;2022-12-18T04:19:16;1.30;56.20
15574;DHT22;7888;46.748;8.102;2022-12-18T04:21:42;1.30;56.30
15574;DHT22;7888;46.748;8.102;2022-12-18T04:24:08;1.30;56.40
15574;DHT22;7888;46.748;8.102;2022-12-18T04:26:34;1.30;56.50
15574;DHT22;7888;46.748;8.102;2022-12-18T04:29:00;1.30;56.40
15574;DHT22;7888;46.748;8.102;2022-12-18T04:31:26;1.30;56.40
15574;DHT22;7888;46.748;8.102;2022-12-18T04:33:51;1.30;56.40
15574;DHT22;7888;46.748;8.102;2022-12-18T04:36:18;1.30;56.40
15574;DHT22;7888;46.748;8.102;2022-12-18T04:38:43;1.30;56.50
15574;DHT22;7888;46.748;8.102;2022-12-18T04:41:09;1.30;56.70
15574;DHT22;7888;46.748;8.102;2022-12-18T04:43:35;1.30;56.50
15574;DHT22;7888;46.748;8.102;2022-12-18T04:46:06;1.40;56.60
15574;DHT22;7888;46.748;8.102;2022-12-18T04:48:33;1.40;56.70
15574;DHT22;7888;46.748;8.102;2022-12-18T04:50:59;1.40;56.70
15574;DHT22;7888;46.748;8.102;2022-12-18T04:53:25;1.40;56.70
15574;DHT22;7888;46.748;8.102;2022-12-18T04:56:02;1.40;56.70
15574;DHT22;7888;46.748;8.102;2022-12-18T04:58:32;1.40;56.70
15574;DHT22;7888;46.748;8.102;2022-12-18T05:00:58;1.40;56.70
15574;DHT22;7888;46.748;8.102;2022-12-18T05:03:24;1.40;56.70
15574;DHT22;7888;46.748;8.102;2022-12-18T05:05:50;1.50;56.80
15574;DHT22;7888;46.748;8.102;2022-12-18T05:08:17;1.50;56.80
15574;DHT22;7888;46.748;8.102;2022-12-18T05:10:43;1.50;56.80
15574;DHT22;7888;46.748;8.102;2022-12-18T05:13:09;1.50;56.70
15574;DHT22;7888;46.748;8.102;2022-12-18T05:15:35;1.50;56.70
15574;DHT22;7888;46.748;8.102;2022-12-18T05:18:01;1.50;56.70
15574;DHT22;7888;46.748;8.102;2022-12-18T05:20:28;1.50;56.60
15574;DHT22;7888;46.748;8.102;2022-12-18T05:22:55;1.50;56.70
15574;DHT22;7888;46.748;8.102;2022-12-18T05:25:21;1.50;56.60
15574;DHT22;7888;46.748;8.102;2022-12-18T05:27:48;1.60;56.70
15574;DHT22;7888;46.748;8.102;2022-12-18T05:30:14;1.60;56.70
15574;DHT22;7888;46.748;8.102;2022-12-18T05:32:41;1.60;56.70
15574;DHT22;7888;46.748;8.102;2022-12-18T05:35:09;1.60;56.80
15574;DHT22;7888;46.748;8.102;2022-12-18T05:37:36;1.60;56.90
15574;DHT22;7888;46.748;8.102;2022-12-18T05:40:03;1.60;56.90
15574;DHT22;7888;46.748;8.102;2022-12-18T05:42:30;1.60;56.90
15574;DHT22;7888;46.748;8.102;2022-12-18T05:44:56;1.60;56.90
15574;DHT22;7888;46.748;8.102;2022-12-18T05:47:22;1.70;57.00
15574;DHT22;7888;46.748;8.102;2022-12-18T05:49:48;1.70;57.10
15574;DHT22;7888;46.748;8.102;2022-12-18T05:52:13;1.70;57.10
15574;DHT22;7888;46.748;8.102;2022-12-18T05:54:39;1.80;57.10
15574;DHT22;7888;46.748;8.102;2022-12-18T05:57:05;1.80;57.10
15574;DHT22;7888;46.748;8.102;2022-12-18T05:59:31;1.80;57.10
15574;DHT22;7888;46.748;8.102;2022-12-18T06:01:57;1.80;57.10
15574;DHT22;7888;46.748;8.102;2022-12-18T06:04:22;1.80;57.10
15574;DHT22;7888;46.748;8.102;2022-12-18T06:06:48;1.90;57.10
15574;DHT22;7888;46.748;8.102;2022-12-18T06:09:14;1.90;57.10
15574;DHT22;7888;46.748;8.102;2022-12-18T06:11:40;1.90;57.10
15574;DHT22;7888;46.748;8.102;2022-12-18T06:14:06;1.90;57.10
15574;DHT22;7888;46.748;8.102;2022-12-18T06:16:32;1.90;57.00
15574;DHT22;7888;46.748;8.102;2022-12-18T06:18:59;1.90;57.00
15574;DHT22;7888;46.748;8.102;2022-12-18T06:21:27;2.00;57.10
15574;DHT22;7888;46.748;8.102;2022-12-18T06:23:53;2.00;57.00
15574;DHT22;7888;46.748;8.102;2022-12-18T06:26:19;2.00;57.00
15574;DHT22;7888;46.748;8.102;2022-12-18T06:28:45;2.00;57.10
15574;DHT22;7888;46.748;8.102;2022-12-18T06:31:11;2.00;57.10
15574;DHT22;7888;46.748;8.102;2022-12-18T06:33:37;2.00;57.00
15574;DHT22;7888;46.748;8.102;2022-12-18T06:36:13;2.00;56.90
15574;DHT22;7888;46.748;8.102;2022-12-18T06:38:42;2.00;57.10
15574;DHT22;7888;46.748;8.102;2022-12-18T06:41:15;2.00;57.00
15574;DHT22;7888;46.748;8.102;2022-12-18T06:43:43;2.00;57.10
15574;DHT22;7888;46.748;8.102;2022-12-18T06:46:10;2.00;57.00
15574;DHT22;7888;46.748;8.102;2022-12-18T06:48:36;2.00;57.00
15574;DHT22;7888;46.748;8.102;2022-12-18T06:51:03;2.00;57.00
15574;DHT22;7888;46.748;8.102;2022-12-18T06:53:29;2.00;57.00
15574;DHT22;7888;46.748;8.102;2022-12-18T06:56:03;2.00;57.00
15574;DHT22;7888;46.748;8.102;2022-12-18T06:58:31;2.00;57.00
15574;DHT22;7888;46.748;8.102;2022-12-18T07:01:01;2.00;56.90
15574;DHT22;7888;46.748;8.102;2022-12-18T07:03:28;2.00;56.90
15574;DHT22;7888;46.748;8.102;2022-12-18T07:05:54;2.00;57.00
15574;DHT22;7888;46.748;8.102;2022-12-18T07:08:20;2.00;57.00
15574;DHT22;7888;46.748;8.102;2022-12-18T07:10:46;2.00;57.00
15574;DHT22;7888;46.748;8.102;2022-12-18T07:13:15;2.00;57.00
15574;DHT22;7888;46.748;8.102;2022-12-18T07:15:42;2.00;57.00
15574;DHT22;7888;46.748;8.102;2022-12-18T07:18:08;2.00;56.90
15574;DHT22;7888;46.748;8.102;2022-12-18T07:20:34;2.00;56.90
15574;DHT22;7888;46.748;8.102;2022-12-18T07:23:02;2.10;56.90
15574;DHT22;7888;46.748;8.102;2022-12-18T07:25:29;2.10;56.90
15574;DHT22;7888;46.748;8.102;2022-12-18T07:27:54;2.00;56.90
15574;DHT22;7888;46.748;8.102;2022-12-18T07:30:20;2.10;56.90
15574;DHT22;7888;46.748;8.102;2022-12-18T07:32:46;2.00;56.80
15574;DHT22;7888;46.748;8.102;2022-12-18T07:35:12;2.10;56.80
15574;DHT22;7888;46.748;8.102;2022-12-18T07:37:38;2.00;56.80
15574;DHT22;7888;46.748;8.102;2022-12-18T07:40:04;2.00;56.80
15574;DHT22;7888;46.748;8.102;2022-12-18T07:42:30;2.00;56.80
15574;DHT22;7888;46.748;8.102;2022-12-18T07:44:56;2.00;56.80
15574;DHT22;7888;46.748;8.102;2022-12-18T07:47:23;2.00;56.90
15574;DHT22;7888;46.748;8.102;2022-12-18T07:49:48;2.00;56.80
15574;DHT22;7888;46.748;8.102;2022-12-18T07:52:14;2.00;56.70
15574;DHT22;7888;46.748;8.102;2022-12-18T07:54:41;2.00;56.50
15574;DHT22;7888;46.748;8.102;2022-12-18T07:57:07;2.00;56.50
15574;DHT22;7888;46.748;8.102;2022-12-18T07:59:34;2.00;56.40
15574;DHT22;7888;46.748;8.102;2022-12-18T08:02:00;2.00;56.40
15574;DHT22;7888;46.748;8.102;2022-12-18T08:04:26;1.90;56.30
15574;DHT22;7888;46.748;8.102;2022-12-18T08:06:52;2.00;56.40
15574;DHT22;7888;46.748;8.102;2022-12-18T08:09:18;2.00;56.40
15574;DHT22;7888;46.748;8.102;2022-12-18T08:11:44;1.90;56.40
15574;DHT22;7888;46.748;8.102;2022-12-18T08:14:10;1.90;56.40
15574;DHT22;7888;46.748;8.102;2022-12-18T08:16:35;1.90;56.30
15574;DHT22;7888;46.748;8.102;2022-12-18T08:19:01;1.90;56.40
15574;DHT22;7888;46.748;8.102;2022-12-18T08:21:29;1.90;56.20
15574;DHT22;7888;46.748;8.102;2022-12-18T08:23:58;1.90;56.20
15574;DHT22;7888;46.748;8.102;2022-12-18T08:26:27;1.90;56.10
15574;DHT22;7888;46.748;8.102;2022-12-18T08:28:56;1.90;56.20
15574;DHT22;7888;46.748;8.102;2022-12-18T08:31:24;1.90;56.20
15574;DHT22;7888;46.748;8.102;2022-12-18T08:33:52;1.90;56.20
15574;DHT22;7888;46.748;8.102;2022-12-18T08:36:19;1.90;56.20
15574;DHT22;7888;46.748;8.102;2022-12-18T08:38:46;1.90;56.20
15574;DHT22;7888;46.748;8.102;2022-12-18T08:41:14;1.80;56.10
15574;DHT22;7888;46.748;8.102;2022-12-18T08:43:41;1.80;56.10
15574;DHT22;7888;46.748;8.102;2022-12-18T08:46:27;1.90;56.10
15574;DHT22;7888;46.748;8.102;2022-12-18T08:48:58;1.80;56.10
15574;DHT22;7888;46.748;8.102;2022-12-18T08:51:24;1.90;56.10
15574;DHT22;7888;46.748;8.102;2022-12-18T08:53:49;1.90;56.20
15574;DHT22;7888;46.748;8.102;2022-12-18T08:56:16;1.80;56.10
15574;DHT22;7888;46.748;8.102;2022-12-18T08:58:42;1.90;56.20
15574;DHT22;7888;46.748;8.102;2022-12-18T09:01:10;1.90;56.20
15574;DHT22;7888;46.748;8.102;2022-12-18T09:03:38;1.90;56.30
15574;DHT22;7888;46.748;8.102;2022-12-18T09:06:04;1.80;56.30
15574;DHT22;7888;46.748;8.102;2022-12-18T09:08:31;1.80;56.40
15574;DHT22;7888;46.748;8.102;2022-12-18T09:10:57;1.80;56.40
15574;DHT22;7888;46.748;8.102;2022-12-18T09:13:22;1.80;56.40
15574;DHT22;7888;46.748;8.102;2022-12-18T09:15:51;1.80;56.30
15574;DHT22;7888;46.748;8.102;2022-12-18T09:18:20;1.80;56.40
15574;DHT22;7888;46.748;8.102;2022-12-18T09:20:47;1.80;56.40
15574;DHT22;7888;46.748;8.102;2022-12-18T09:23:13;1.80;56.40
15574;DHT22;7888;46.748;8.102;2022-12-18T09:25:39;1.80;56.30
15574;DHT22;7888;46.748;8.102;2022-12-18T09:28:10;1.90;56.40
15574;DHT22;7888;46.748;8.102;2022-12-18T09:30:48;1.90;56.50
15574;DHT22;7888;46.748;8.102;2022-12-18T09:33:15;1.90;56.50
15574;DHT22;7888;46.748;8.102;2022-12-18T09:35:42;1.90;56.50
15574;DHT22;7888;46.748;8.102;2022-12-18T09:38:15;1.90;56.70
15574;DHT22;7888;46.748;8.102;2022-12-18T09:40:52;1.90;56.50
15574;DHT22;7888;46.748;8.102;2022-12-18T09:43:28;1.90;56.60
15574;DHT22;7888;46.748;8.102;2022-12-18T09:46:02;2.00;56.90
15574;DHT22;7888;46.748;8.102;2022-12-18T09:48:35;2.00;57.80
15574;DHT22;7888;46.748;8.102;2022-12-18T09:51:14;2.10;58.60
15574;DHT22;7888;46.748;8.102;2022-12-18T09:53:47;2.30;59.80
15574;DHT22;7888;46.748;8.102;2022-12-18T09:56:19;2.50;60.20
15574;DHT22;7888;46.748;8.102;2022-12-18T09:59:00;2.70;59.70
15574;DHT22;7888;46.748;8.102;2022-12-18T10:01:29;3.00;58.90
15574;DHT22;7888;46.748;8.102;2022-12-18T10:03:56;3.10;58.30
15574;DHT22;7888;46.748;8.102;2022-12-18T10:12:17;3.40;57.30
15574;DHT22;7888;46.748;8.102;2022-12-18T10:15:05;3.40;57.10
15574;DHT22;7888;46.748;8.102;2022-12-18T10:20:46;3.50;56.80
15574;DHT22;7888;46.748;8.102;2022-12-18T10:23:25;3.50;56.70
15574;DHT22;7888;46.748;8.102;2022-12-18T10:26:20;3.50;56.50
15574;DHT22;7888;46.748;8.102;2022-12-18T10:28:46;3.50;56.40
15574;DHT22;7888;46.748;8.102;2022-12-18T10:31:21;3.50;56.50
15574;DHT22;7888;46.748;8.102;2022-12-18T10:33:49;3.50;56.50
15574;DHT22;7888;46.748;8.102;2022-12-18T10:36:15;3.50;56.50
15574;DHT22;7888;46.748;8.102;2022-12-18T10:38:41;3.40;56.60
15574;DHT22;7888;46.748;8.102;2022-12-18T10:44:14;3.40;56.40
15574;DHT22;7888;46.748;8.102;2022-12-18T10:46:44;3.50;56.60
15574;DHT22;7888;46.748;8.102;2022-12-18T10:49:26;3.50;56.70
15574;DHT22;7888;46.748;8.102;2022-12-18T10:54:55;3.50;56.90
15574;DHT22;7888;46.748;8.102;2022-12-18T10:57:30;3.60;57.00
15574;DHT22;7888;46.748;8.102;2022-12-18T11:00:25;3.70;57.10
15574;DHT22;7888;46.748;8.102;2022-12-18T11:02:54;3.90;58.30
15574;DHT22;7888;46.748;8.102;2022-12-18T11:05:34;4.20;60.00
15574;DHT22;7888;46.748;8.102;2022-12-18T11:08:02;4.70;62.50
15574;DHT22;7888;46.748;8.102;2022-12-18T11:10:32;5.40;64.40
15574;DHT22;7888;46.748;8.102;2022-12-18T11:13:12;6.30;65.40
15574;DHT22;7888;46.748;8.102;2022-12-18T11:15:48;7.30;65.20
15574;DHT22;7888;46.748;8.102;2022-12-18T11:18:35;8.30;66.40
15574;DHT22;7888;46.748;8.102;2022-12-18T11:21:09;9.50;64.90
15574;DHT22;7888;46.748;8.102;2022-12-18T11:23:46;10.40;61.10
15574;DHT22;7888;46.748;8.102;2022-12-18T11:26:15;11.00;57.30
15574;DHT22;7888;46.748;8.102;2022-12-18T11:28:47;11.40;55.50
15574;DHT22;7888;46.748;8.102;2022-12-18T11:31:26;11.50;52.80
15574;DHT22;7888;46.748;8.102;2022-12-18T11:34:11;11.40;51.50
15574;DHT22;7888;46.748;8.102;2022-12-18T11:36:45;11.30;50.80
15574;DHT22;7888;46.748;8.102;2022-12-18T11:42:24;10.70;50.00
15574;DHT22;7888;46.748;8.102;2022-12-18T11:45:01;10.40;50.00
15574;DHT22;7888;46.748;8.102;2022-12-18T11:48:03;10.20;50.50
15574;DHT22;7888;46.748;8.102;2022-12-18T11:50:46;9.90;50.20
15574;DHT22;7888;46.748;8.102;2022-12-18T11:53:24;9.70;50.90
15574;DHT22;7888;46.748;8.102;2022-12-18T12:01:51;9.10;51.00
15574;DHT22;7888;46.748;8.102;2022-12-18T12:10:32;8.80;51.20
15574;DHT22;7888;46.748;8.102;2022-12-18T12:19:29;8.50;51.40
15574;DHT22;7888;46.748;8.102;2022-12-18T12:23:04;8.40;51.80
15574;DHT22;7888;46.748;8.102;2022-12-18T12:28:47;8.20;51.90
15574;DHT22;7888;46.748;8.102;2022-12-18T12:34:27;8.00;52.00
15574;DHT22;7888;46.748;8.102;2022-12-18T12:40:01;7.90;52.10
15574;DHT22;7888;46.748;8.102;2022-12-18T12:42:52;7.90;52.40
15574;DHT22;7888;46.748;8.102;2022-12-18T12:45:57;7.80;51.90
15574;DHT22;7888;46.748;8.102;2022-12-18T12:48:49;7.80;52.30
15574;DHT22;7888;46.748;8.102;2022-12-18T12:53:56;7.80;52.80
15574;DHT22;7888;46.748;8.102;2022-12-18T12:56:26;7.80;52.80
15574;DHT22;7888;46.748;8.102;2022-12-18T12:59:22;7.80;52.80
15574;DHT22;7888;46.748;8.102;2022-12-18T13:04:53;7.70;52.70
15574;DHT22;7888;46.748;8.102;2022-12-18T13:07:32;7.70;52.40
15574;DHT22;7888;46.748;8.102;2022-12-18T13:13:04;7.70;52.60
15574;DHT22;7888;46.748;8.102;2022-12-18T13:31:00;7.40;52.80
15574;DHT22;7888;46.748;8.102;2022-12-18T13:33:46;7.40;53.40
15574;DHT22;7888;46.748;8.102;2022-12-18T13:41:44;7.30;52.60
15574;DHT22;7888;46.748;8.102;2022-12-18T13:44:12;7.30;52.80
15574;DHT22;7888;46.748;8.102;2022-12-18T13:46:51;7.20;52.80
15574;DHT22;7888;46.748;8.102;2022-12-18T13:52:03;7.20;52.70
15574;DHT22;7888;46.748;8.102;2022-12-18T13:54:57;7.10;52.90
15574;DHT22;7888;46.748;8.102;2022-12-18T13:59:58;7.10;52.90
15574;DHT22;7888;46.748;8.102;2022-12-18T14:02:37;7.00;52.90
15574;DHT22;7888;46.748;8.102;2022-12-18T14:05:03;7.00;52.90
15574;DHT22;7888;46.748;8.102;2022-12-18T14:07:30;6.90;52.90
15574;DHT22;7888;46.748;8.102;2022-12-18T14:09:58;6.90;53.00
15574;DHT22;7888;46.748;8.102;2022-12-18T14:12:31;6.90;53.00
15574;DHT22;7888;46.748;8.102;2022-12-18T14:15:33;6.80;53.00
15574;DHT22;7888;46.748;8.102;2022-12-18T14:18:32;6.80;52.90
15574;DHT22;7888;46.748;8.102;2022-12-18T14:21:28;6.80;53.10
15574;DHT22;7888;46.748;8.102;2022-12-18T14:24:16;6.70;53.10
15574;DHT22;7888;46.748;8.102;2022-12-18T14:26:47;6.70;53.20
15574;DHT22;7888;46.748;8.102;2022-12-18T14:29:26;6.70;53.40
15574;DHT22;7888;46.748;8.102;2022-12-18T14:34:41;6.60;53.10
15574;DHT22;7888;46.748;8.102;2022-12-18T14:37:10;6.60;53.10
15574;DHT22;7888;46.748;8.102;2022-12-18T14:39:38;6.50;52.90
15574;DHT22;7888;46.748;8.102;2022-12-18T14:42:04;6.50;52.90
15574;DHT22;7888;46.748;8.102;2022-12-18T14:44:30;6.40;52.80
15574;DHT22;7888;46.748;8.102;2022-12-18T14:46:56;6.30;52.90
15574;DHT22;7888;46.748;8.102;2022-12-18T14:51:59;6.20;53.20
15574;DHT22;7888;46.748;8.102;2022-12-18T14:54:28;6.10;53.40
15574;DHT22;7888;46.748;8.102;2022-12-18T14:57:05;6.00;53.40
15574;DHT22;7888;46.748;8.102;2022-12-18T14:59:41;5.90;53.40
15574;DHT22;7888;46.748;8.102;2022-12-18T15:02:22;5.90;53.40
15574;DHT22;7888;46.748;8.102;2022-12-18T15:05:14;5.90;53.50
15574;DHT22;7888;46.748;8.102;2022-12-18T15:07:52;5.80;53.50
15574;DHT22;7888;46.748;8.102;2022-12-18T15:10:25;5.80;53.60
15574;DHT22;7888;46.748;8.102;2022-12-18T15:18:29;5.60;53.20
15574;DHT22;7888;46.748;8.102;2022-12-18T15:21:08;5.50;53.40
15574;DHT22;7888;46.748;8.102;2022-12-18T15:23:45;5.40;53.40
15574;DHT22;7888;46.748;8.102;2022-12-18T15:26:14;5.40;53.50
15574;DHT22;7888;46.748;8.102;2022-12-18T15:28:57;5.30;53.50
15574;DHT22;7888;46.748;8.102;2022-12-18T15:31:32;5.20;53.40
15574;DHT22;7888;46.748;8.102;2022-12-18T15:34:11;5.20;53.60
15574;DHT22;7888;46.748;8.102;2022-12-18T15:36:43;5.20;53.50
15574;DHT22;7888;46.748;8.102;2022-12-18T15:39:11;5.10;53.70
15574;DHT22;7888;46.748;8.102;2022-12-18T15:41:38;5.10;54.10
15574;DHT22;7888;46.748;8.102;2022-12-18T15:44:22;5.00;54.00
15574;DHT22;7888;46.748;8.102;2022-12-18T15:46:49;5.00;54.00
15574;DHT22;7888;46.748;8.102;2022-12-18T15:49:14;4.90;53.90
15574;DHT22;7888;46.748;8.102;2022-12-18T15:51:40;4.90;53.90
15574;DHT22;7888;46.748;8.102;2022-12-18T15:54:11;4.80;53.90
15574;DHT22;7888;46.748;8.102;2022-12-18T15:56:41;4.80;53.90
15574;DHT22;7888;46.748;8.102;2022-12-18T15:59:26;4.70;53.90
15574;DHT22;7888;46.748;8.102;2022-12-18T16:01:52;4.70;54.00
15574;DHT22;7888;46.748;8.102;2022-12-18T16:04:20;4.60;54.10
15574;DHT22;7888;46.748;8.102;2022-12-18T16:06:50;4.60;54.40
15574;DHT22;7888;46.748;8.102;2022-12-18T16:09:17;4.60;54.70
15574;DHT22;7888;46.748;8.102;2022-12-18T16:11:43;4.60;54.60
15574;DHT22;7888;46.748;8.102;2022-12-18T16:14:18;4.50;54.50
15574;DHT22;7888;46.748;8.102;2022-12-18T16:16:53;4.50;54.40
15574;DHT22;7888;46.748;8.102;2022-12-18T16:19:28;4.50;54.50
15574;DHT22;7888;46.748;8.102;2022-12-18T16:21:56;4.40;54.30
15574;DHT22;7888;46.748;8.102;2022-12-18T16:24:25;4.40;54.30
15574;DHT22;7888;46.748;8.102;2022-12-18T16:26:57;4.30;54.30
15574;DHT22;7888;46.748;8.102;2022-12-18T16:29:25;4.30;54.40
15574;DHT22;7888;46.748;8.102;2022-12-18T16:32:01;4.20;54.40
15574;DHT22;7888;46.748;8.102;2022-12-18T16:34:31;4.20;54.50
15574;DHT22;7888;46.748;8.102;2022-12-18T16:37:01;4.20;54.50
15574;DHT22;7888;46.748;8.102;2022-12-18T16:39:29;4.10;54.60
15574;DHT22;7888;46.748;8.102;2022-12-18T16:41:56;4.10;54.60
15574;DHT22;7888;46.748;8.102;2022-12-18T16:44:22;4.10;54.60
15574;DHT22;7888;46.748;8.102;2022-12-18T16:46:48;4.10;55.30
15574;DHT22;7888;46.748;8.102;2022-12-18T16:49:15;4.00;54.70
15574;DHT22;7888;46.748;8.102;2022-12-18T16:51:42;4.00;54.70
15574;DHT22;7888;46.748;8.102;2022-12-18T16:54:09;4.00;54.70
15574;DHT22;7888;46.748;8.102;2022-12-18T16:56:35;4.00;54.90
15574;DHT22;7888;46.748;8.102;2022-12-18T16:59:02;3.90;55.10
15574;DHT22;7888;46.748;8.102;2022-12-18T17:01:30;3.90;55.00
15574;DHT22;7888;46.748;8.102;2022-12-18T17:04:02;3.90;55.60
15574;DHT22;7888;46.748;8.102;2022-12-18T17:06:32;3.90;55.10
15574;DHT22;7888;46.748;8.102;2022-12-18T17:09:02;3.80;55.00
15574;DHT22;7888;46.748;8.102;2022-12-18T17:11:31;3.80;55.10
15574;DHT22;7888;46.748;8.102;2022-12-18T17:13:58;3.80;55.20
15574;DHT22;7888;46.748;8.102;2022-12-18T17:16:25;3.80;55.20
15574;DHT22;7888;46.748;8.102;2022-12-18T17:18:54;3.80;55.40
15574;DHT22;7888;46.748;8.102;2022-12-18T17:21:19;3.80;55.50
15574;DHT22;7888;46.748;8.102;2022-12-18T17:23:45;3.80;55.40
15574;DHT22;7888;46.748;8.102;2022-12-18T17:26:12;3.80;55.40
15574;DHT22;7888;46.748;8.102;2022-12-18T17:28:39;3.80;55.40
15574;DHT22;7888;46.748;8.102;2022-12-18T17:31:22;3.80;55.40
15574;DHT22;7888;46.748;8.102;2022-12-18T17:33:50;3.80;55.70
15574;DHT22;7888;46.748;8.102;2022-12-18T17:36:17;3.80;55.50
15574;DHT22;7888;46.748;8.102;2022-12-18T17:38:49;3.90;55.60
15574;DHT22;7888;46.748;8.102;2022-12-18T17:41:21;3.80;55.70
15574;DHT22;7888;46.748;8.102;2022-12-18T17:43:51;3.90;55.70
15574;DHT22;7888;46.748;8.102;2022-12-18T17:46:19;3.80;55.60
15574;DHT22;7888;46.748;8.102;2022-12-18T17:48:45;3.90;55.60
15574;DHT22;7888;46.748;8.102;2022-12-18T17:51:12;3.80;55.60
15574;DHT22;7888;46.748;8.102;2022-12-18T17:53:39;3.80;55.60
15574;DHT22;7888;46.748;8.102;2022-12-18T17:56:06;3.80;55.50
15574;DHT22;7888;46.748;8.102;2022-12-18T17:58:35;3.80;55.50
15574;DHT22;7888;46.748;8.102;2022-12-18T18:01:02;3.80;55.50
15574;DHT22;7888;46.748;8.102;2022-12-18T18:03:30;3.80;55.50
15574;DHT22;7888;46.748;8.102;2022-12-18T18:05:59;3.80;55.60
15574;DHT22;7888;46.748;8.102;2022-12-18T18:08:25;3.80;55.70
15574;DHT22;7888;46.748;8.102;2022-12-18T18:10:52;3.70;55.60
15574;DHT22;7888;46.748;8.102;2022-12-18T18:13:24;3.80;55.70
15574;DHT22;7888;46.748;8.102;2022-12-18T18:16:10;3.70;55.70
15574;DHT22;7888;46.748;8.102;2022-12-18T18:18:37;3.80;55.70
15574;DHT22;7888;46.748;8.102;2022-12-18T18:21:08;3.70;55.60
15574;DHT22;7888;46.748;8.102;2022-12-18T18:23:34;3.70;55.70
15574;DHT22;7888;46.748;8.102;2022-12-18T18:26:04;3.70;55.70